RJBB/KIX METAR and TAF weather

Enter ICAO airport designator
Station Type Date Time Source
RJBB METAR 2019/06/17 04:30 UTC NOAA

RJBB 170430Z 21007KT 9999 FEW030 BKN/// 22/15 Q1012 NOSIG


Station Type Date Time Source
RJBB Decoded METAR 2019/06/17 04:30 UTC NOAA

Kansai International Airport, Japan (RJBB) 34-25N 135-15E 8M
Jun 17, 2019 - 12:30 AM EDT / 2019.06.17 0430 UTC
Wind: from the SSW (210 degrees) at 8 MPH (7 KT):0
Visibility: greater than 7 mile(s):0
Sky conditions: mostly cloudy
Temperature: 71 F (22 C)
Dew Point: 59 F (15 C)
Relative Humidity: 64%
Pressure (altimeter): 29.88 in. Hg (1012 hPa)
ob: RJBB 170430Z 21007KT 9999 FEW030 BKN/// 22/15 Q1012 NOSIG
cycle: 4

Station Type Date Time Source
RJBB TAF 2019/06/17 02:06 UTC NOAA

TAF
AMD RJBB 170202Z 1702/1806 28006KT 9999 FEW030
BECMG 1712/1715 08004KT
BECMG 1800/1803 29008KT

Example: see airport list